Alpine, Colorado
Current Conditions -  °F | °C
As of 10:30 PM on Monday 26 Jan 2015 (Local Time) from KRCV Reporting Station
Clear Clear  
Wind Chill: -10°   Ceiling: Unl
Heat Index: -4°   Visibility: 10mi
Dew Point: -7°   Wind: 9mph
Humidity: 83%   Direction: 260°W
Pressure: 30.43"   Gusts: NA
Location:  37.6617°N, 106.617°W
Report Text: KRCV 270530Z AUTO 26008KT 10SM CLR M04/M07 A3043 RMK AO2 T10441069
Loading
Personal Weather Stations






























Interactive Weather Map New forecast layout! Learn more

10-Day Weather Forecast

Advertisements
Track Severe Weather on mobile